Decoded Metar for CYQB (QUEBEC in QC, CANADA) (IATA:YQB) | Meteo·Mobile Aviation Weather
aviador You're here:

CYQB Decoded Metar

QUEBEC in QC, CANADA
Report Time2019-07-23 07:00:00
UTC Time2019-07-23 07:57:03
Flight Rules vfr VFR
WindCalm
Visibility9999 m
Phenomena:N/A
Clouds:Broken 240 Hf
Expected CloudBase > 400 ft AGL from Temp-Dew spread
Ceiling24,000 ft
Temp12°C (ISA -3)
Dew Point11°C (94% RH)
QNH1010 hPa
Density Alt220 ft
Elevation240 ft
Report Wrong Elevation
Raw Report
CYQB 230700Z 00000KT 15SM BKN240 12/11 A2983 RMK CI6 SLP104=

Extra information for CYQB:More info

Metar Taf Metar & Taf Last 4 Metars F.Rules Stats Wind Profile Meteogram Temp Stats Airport Information Weather charts Add Link Nearby VenuesMetar ALERT Operation Metar Decoded Social comments

navcanada